Time;durP1;ratioP1;P1;durP2;ratioP2;P2;SDS_P1;SDS_P2;PMS_P1;PMS_P2;Temp;Humidity;BMP_temperature;BMP_pressure;BME280_temperature;BME280_humidity;BME280_pressure;Samples;Min_cycle;Max_cycle;Signal;HPM_P1;HPM_P2
2023/03/07 00:00:25;;;;;;;9.10;8.68;;;;;;;;;;5011710;28;20396;-61
2023/03/07 00:02:50;;;;;;;8.95;8.50;;;;;;;;;;5011626;28;20077;-63
2023/03/07 00:05:17;;;;;;;8.98;8.48;;;;;;;;;;5012598;28;20022;-62
2023/03/07 00:07:43;;;;;;;8.77;8.38;;;;;;;;;;5004121;28;20030;-63
2023/03/07 00:10:08;;;;;;;9.45;8.95;;;;;;;;;;5011543;28;20029;-63
2023/03/07 00:12:33;;;;;;;9.27;8.77;;;;;;;;;;5011208;28;20048;-63
2023/03/07 00:14:59;;;;;;;9.27;8.77;;;;;;;;;;5015137;28;20141;-63
2023/03/07 00:17:24;;;;;;;9.05;8.57;;;;;;;;;;5014678;28;20025;-63
2023/03/07 00:19:49;;;;;;;9.05;8.55;;;;;;;;;;5014726;28;20440;-63
2023/03/07 00:22:15;;;;;;;8.68;8.27;;;;;;;;;;4997259;28;20045;-63
2023/03/07 00:24:40;;;;;;;9.10;8.60;;;;;;;;;;5013965;28;20036;-63
2023/03/07 00:27:05;;;;;;;9.65;9.15;;;;;;;;;;5014752;28;20030;-62
2023/03/07 00:29:31;;;;;;;9.25;8.82;;;;;;;;;;5014361;28;20104;-63
2023/03/07 00:31:56;;;;;;;9.00;8.52;;;;;;;;;;5014762;28;20045;-62
2023/03/07 00:34:21;;;;;;;9.20;8.70;;;;;;;;;;5014729;28;20018;-63
2023/03/07 00:36:48;;;;;;;9.27;8.77;;;;;;;;;;5011290;28;20018;-62
2023/03/07 00:39:14;;;;;;;8.63;8.23;;;;;;;;;;5014923;28;20025;-63
2023/03/07 00:41:39;;;;;;;8.88;8.48;;;;;;;;;;5008741;28;20386;-64
2023/03/07 00:44:04;;;;;;;8.82;8.43;;;;;;;;;;5001863;28;20041;-64
2023/03/07 00:46:30;;;;;;;8.68;8.27;;;;;;;;;;5013965;28;20041;-63
2023/03/07 00:48:55;;;;;;;9.18;8.68;;;;;;;;;;5015426;28;20021;-63
2023/03/07 00:51:21;;;;;;;9.40;8.90;;;;;;;;;;5010943;28;20026;-63
2023/03/07 00:53:46;;;;;;;9.13;8.68;;;;;;;;;;5014822;28;20440;-62
2023/03/07 00:56:11;;;;;;;9.77;9.27;;;;;;;;;;5018222;28;20120;-63
2023/03/07 00:58:37;;;;;;;9.80;9.30;;;;;;;;;;5014193;28;20102;-64
2023/03/07 01:01:03;;;;;;;9.60;9.10;;;;;;;;;;4992433;28;20400;-63
2023/03/07 01:03:29;;;;;;;8.85;8.45;;;;;;;;;;5002211;28;20014;-63
2023/03/07 01:05:54;;;;;;;9.07;8.68;;;;;;;;;;5014302;28;20397;-62
2023/03/07 01:08:20;;;;;;;9.15;8.68;;;;;;;;;;5014444;28;20080;-62
2023/03/07 01:10:47;;;;;;;8.80;8.40;;;;;;;;;;5014108;28;20018;-62
2023/03/07 01:13:13;;;;;;;9.20;8.70;;;;;;;;;;5014723;28;20481;-64
2023/03/07 01:15:38;;;;;;;9.15;8.65;;;;;;;;;;5016446;28;20026;-63
2023/03/07 01:18:04;;;;;;;9.43;8.93;;;;;;;;;;4990376;28;20072;-63
2023/03/07 01:20:30;;;;;;;9.32;8.82;;;;;;;;;;5010782;28;20095;-62
2023/03/07 01:22:56;;;;;;;9.15;8.68;;;;;;;;;;5011384;28;20022;-63
2023/03/07 01:25:21;;;;;;;9.00;8.60;;;;;;;;;;5012762;28;20026;-62
2023/03/07 01:27:46;;;;;;;9.77;9.27;;;;;;;;;;5013429;28;20116;-64
2023/03/07 01:30:12;;;;;;;9.30;8.80;;;;;;;;;;5013610;28;20046;-63
2023/03/07 01:32:37;;;;;;;9.13;8.70;;;;;;;;;;5010632;28;20037;-62
2023/03/07 01:35:03;;;;;;;8.85;8.45;;;;;;;;;;5013835;28;20026;-62
2023/03/07 01:37:28;;;;;;;8.50;8.10;;;;;;;;;;5012558;28;20497;-64
2023/03/07 01:39:53;;;;;;;8.88;8.48;;;;;;;;;;5013495;28;20072;-62
2023/03/07 01:42:19;;;;;;;8.70;8.30;;;;;;;;;;5013328;28;20349;-64
2023/03/07 01:45:05;;;;;;;9.00;8.55;;;;;;;;;;5013350;28;20025;-63
2023/03/07 01:47:30;;;;;;;9.35;8.85;;;;;;;;;;5001451;28;20017;-63
2023/03/07 01:49:56;;;;;;;8.85;8.45;;;;;;;;;;5022011;28;20491;-63
2023/03/07 01:52:28;;;;;;;9.30;8.80;;;;;;;;;;5013022;28;20022;-63
2023/03/07 01:55:02;;;;;;;8.90;8.50;;;;;;;;;;5007638;28;20112;-63
2023/03/07 01:57:32;;;;;;;9.15;8.73;;;;;;;;;;5013120;28;20076;-63
2023/03/07 01:59:58;;;;;;;9.30;8.80;;;;;;;;;;5013305;28;20048;-63
2023/03/07 02:02:24;;;;;;;8.52;8.13;;;;;;;;;;5012868;28;20066;-63
2023/03/07 02:04:53;;;;;;;9.52;9.02;;;;;;;;;;5012776;28;20477;-63
2023/03/07 02:07:19;;;;;;;9.05;8.63;;;;;;;;;;5012993;28;20087;-63
2023/03/07 02:09:47;;;;;;;9.35;8.85;;;;;;;;;;5012540;28;20018;-64
2023/03/07 02:12:12;;;;;;;9.07;8.60;;;;;;;;;;5011702;28;20030;-63
2023/03/07 02:14:41;;;;;;;9.40;8.90;;;;;;;;;;5006907;28;20101;-64
2023/03/07 02:17:06;;;;;;;9.57;9.07;;;;;;;;;;5012537;28;20489;-63
2023/03/07 02:19:32;;;;;;;9.20;8.70;;;;;;;;;;5012563;28;20022;-63
2023/03/07 02:22:13;;;;;;;9.02;8.60;;;;;;;;;;5012453;28;20033;-63
2023/03/07 02:24:54;;;;;;;9.38;8.88;;;;;;;;;;5002433;28;20025;-64
2023/03/07 02:27:19;;;;;;;9.07;8.60;;;;;;;;;;5012282;28;20026;-61
2023/03/07 02:29:44;;;;;;;9.20;8.70;;;;;;;;;;5010036;28;20520;-64
2023/03/07 02:32:10;;;;;;;9.93;9.43;;;;;;;;;;5002314;28;20019;-62
2023/03/07 02:34:35;;;;;;;9.00;8.60;;;;;;;;;;5012409;28;20104;-62
2023/03/07 02:37:03;;;;;;;9.30;8.80;;;;;;;;;;5012606;28;20540;-63
2023/03/07 02:39:29;;;;;;;8.80;8.40;;;;;;;;;;5012413;28;20014;-62
2023/03/07 02:41:55;;;;;;;8.65;8.25;;;;;;;;;;5012146;28;20378;-62
2023/03/07 02:44:21;;;;;;;8.98;8.57;;;;;;;;;;5012649;28;20422;-62
2023/03/07 02:46:46;;;;;;;9.18;8.70;;;;;;;;;;4994224;28;20054;-63
2023/03/07 02:49:12;;;;;;;9.13;8.65;;;;;;;;;;5014069;28;20461;-62
2023/03/07 02:51:37;;;;;;;8.43;8.02;;;;;;;;;;5011216;28;20088;-63
2023/03/07 02:54:02;;;;;;;9.63;9.13;;;;;;;;;;5010557;28;20107;-61
2023/03/07 02:56:28;;;;;;;9.57;9.07;;;;;;;;;;4998808;28;20062;-64
2023/03/07 02:58:53;;;;;;;9.50;9.00;;;;;;;;;;5012609;28;20076;-64
2023/03/07 03:01:18;;;;;;;9.55;9.05;;;;;;;;;;5010374;28;20025;-63
2023/03/07 03:03:44;;;;;;;9.93;9.43;;;;;;;;;;5002107;28;20100;-63
2023/03/07 03:06:09;;;;;;;9.90;9.40;;;;;;;;;;5010268;28;20377;-63
2023/03/07 03:08:34;;;;;;;10.27;9.68;;;;;;;;;;5008995;28;20025;-63
2023/03/07 03:11:00;;;;;;;9.20;8.70;;;;;;;;;;5006150;28;20366;-63
2023/03/07 03:13:25;;;;;;;8.60;8.20;;;;;;;;;;5011978;28;20022;-62
2023/03/07 03:15:53;;;;;;;9.00;8.60;;;;;;;;;;5011526;28;20021;-62
2023/03/07 03:18:19;;;;;;;8.93;8.52;;;;;;;;;;5012078;28;20436;-62
2023/03/07 03:20:44;;;;;;;9.20;8.70;;;;;;;;;;5011335;28;20021;-63
2023/03/07 03:23:09;;;;;;;9.50;9.00;;;;;;;;;;5011764;28;20389;-63
2023/03/07 03:25:35;;;;;;;9.43;8.93;;;;;;;;;;5010393;28;20045;-62
2023/03/07 03:28:00;;;;;;;9.15;8.70;;;;;;;;;;5011694;28;20018;-62
2023/03/07 03:30:27;;;;;;;9.40;8.90;;;;;;;;;;5011510;28;20127;-63
2023/03/07 03:32:52;;;;;;;9.63;9.13;;;;;;;;;;5011598;28;20017;-63
2023/03/07 03:35:18;;;;;;;9.10;8.70;;;;;;;;;;5011446;28;20006;-63
2023/03/07 03:37:44;;;;;;;9.77;9.27;;;;;;;;;;5009411;28;20038;-63
2023/03/07 03:40:13;;;;;;;9.45;8.95;;;;;;;;;;5007903;28;20124;-62
2023/03/07 03:42:41;;;;;;;9.00;8.60;;;;;;;;;;5005430;28;20061;-62
2023/03/07 03:45:07;;;;;;;9.60;9.10;;;;;;;;;;5011604;28;20064;-63
2023/03/07 03:47:33;;;;;;;8.85;8.45;;;;;;;;;;5013589;28;20066;-63
2023/03/07 03:49:58;;;;;;;9.30;8.82;;;;;;;;;;5022836;28;20057;-63
2023/03/07 03:52:23;;;;;;;9.40;8.90;;;;;;;;;;5015516;28;20057;-64
2023/03/07 03:54:48;;;;;;;9.23;8.75;;;;;;;;;;5015147;28;20025;-62
2023/03/07 03:57:16;;;;;;;9.00;8.60;;;;;;;;;;5015553;28;20084;-62
2023/03/07 03:59:42;;;;;;;9.10;8.70;;;;;;;;;;5014003;28;20036;-63
2023/03/07 04:02:07;;;;;;;9.15;8.65;;;;;;;;;;5002177;28;20105;-64
2023/03/07 04:04:32;;;;;;;9.60;9.10;;;;;;;;;;5015473;28;20452;-63
2023/03/07 04:06:58;;;;;;;10.63;10.02;;;;;;;;;;5010148;28;20494;-62
2023/03/07 04:09:23;;;;;;;9.07;8.60;;;;;;;;;;5012561;28;20034;-62
2023/03/07 04:11:48;;;;;;;9.18;8.73;;;;;;;;;;5016777;28;20028;-62
2023/03/07 04:14:14;;;;;;;10.02;9.43;;;;;;;;;;5014776;28;20485;-63
2023/03/07 04:16:39;;;;;;;8.75;8.35;;;;;;;;;;5016071;28;20105;-62
2023/03/07 04:19:04;;;;;;;8.82;8.43;;;;;;;;;;5014635;28;20022;-64
2023/03/07 04:21:30;;;;;;;9.98;9.40;;;;;;;;;;5004185;28;20045;-62
2023/03/07 04:23:57;;;;;;;9.50;9.00;;;;;;;;;;5014922;28;20742;-64
2023/03/07 04:26:22;;;;;;;9.50;9.00;;;;;;;;;;5014500;28;20022;-63
2023/03/07 04:28:48;;;;;;;9.77;9.23;;;;;;;;;;5014406;28;20127;-63
2023/03/07 04:31:17;;;;;;;9.40;8.90;;;;;;;;;;5014470;28;20040;-64
2023/03/07 04:33:42;;;;;;;9.23;8.73;;;;;;;;;;5013741;28;20558;-63
2023/03/07 04:36:08;;;;;;;9.20;8.70;;;;;;;;;;5004865;28;20029;-64
2023/03/07 04:38:33;;;;;;;8.93;8.52;;;;;;;;;;5014670;28;20030;-62
2023/03/07 04:40:59;;;;;;;9.10;8.60;;;;;;;;;;4998237;28;20097;-63
2023/03/07 04:43:24;;;;;;;8.65;8.25;;;;;;;;;;5014371;28;20381;-62
2023/03/07 04:45:51;;;;;;;8.85;8.45;;;;;;;;;;5010250;28;20037;-63
2023/03/07 04:48:16;;;;;;;9.27;8.77;;;;;;;;;;5005058;28;20436;-62
2023/03/07 04:50:41;;;;;;;9.27;8.77;;;;;;;;;;5008095;28;20116;-62
2023/03/07 04:53:07;;;;;;;9.55;9.05;;;;;;;;;;5013192;28;20030;-61
2023/03/07 04:55:32;;;;;;;8.60;8.20;;;;;;;;;;5012808;28;20026;-61
2023/03/07 04:57:58;;;;;;;9.57;9.07;;;;;;;;;;5014114;28;20073;-61
2023/03/07 05:00:23;;;;;;;9.38;8.88;;;;;;;;;;5008322;28;20096;-62
2023/03/07 05:02:49;;;;;;;10.02;9.45;;;;;;;;;;5009136;28;20030;-61
2023/03/07 05:05:14;;;;;;;11.40;10.70;;;;;;;;;;5013907;28;20080;-62
2023/03/07 05:07:40;;;;;;;9.23;8.73;;;;;;;;;;5012700;28;20030;-61
2023/03/07 05:10:05;;;;;;;8.88;8.48;;;;;;;;;;5013694;28;20029;-63
2023/03/07 05:12:31;;;;;;;8.85;8.45;;;;;;;;;;5013686;28;20473;-62
2023/03/07 05:14:56;;;;;;;10.50;9.90;;;;;;;;;;5013545;28;20029;-62
2023/03/07 05:17:21;;;;;;;9.73;9.23;;;;;;;;;;5009255;28;20046;-62
2023/03/07 05:19:46;;;;;;;9.63;9.13;;;;;;;;;;5013725;28;20029;-62
2023/03/07 05:22:12;;;;;;;9.35;8.85;;;;;;;;;;5007704;28;20036;-63
2023/03/07 05:24:37;;;;;;;9.40;8.90;;;;;;;;;;5004561;28;20029;-62
2023/03/07 05:27:02;;;;;;;9.82;9.23;;;;;;;;;;5013122;28;20033;-63
2023/03/07 05:29:28;;;;;;;9.30;8.80;;;;;;;;;;5012810;28;20124;-62
2023/03/07 05:31:53;;;;;;;9.40;8.90;;;;;;;;;;5003028;28;20034;-61
2023/03/07 05:34:20;;;;;;;8.52;8.13;;;;;;;;;;5009585;28;20045;-60
2023/03/07 05:36:46;;;;;;;8.75;8.32;;;;;;;;;;5009861;28;20021;-61
2023/03/07 05:39:11;;;;;;;9.32;8.82;;;;;;;;;;5006219;28;20478;-62
2023/03/07 05:41:37;;;;;;;9.52;9.02;;;;;;;;;;5009852;28;20042;-62
2023/03/07 05:44:02;;;;;;;9.32;8.82;;;;;;;;;;5012647;28;20018;-62
2023/03/07 05:46:27;;;;;;;9.15;8.68;;;;;;;;;;5017596;28;20024;-61
2023/03/07 05:48:53;;;;;;;9.82;9.32;;;;;;;;;;5004630;28;20044;-62
2023/03/07 05:51:18;;;;;;;9.45;8.95;;;;;;;;;;5009169;28;20030;-62
2023/03/07 05:53:45;;;;;;;9.38;8.90;;;;;;;;;;5013151;28;20021;-61
2023/03/07 05:56:10;;;;;;;9.23;8.77;;;;;;;;;;5011390;28;20112;-61
2023/03/07 05:58:35;;;;;;;9.98;9.48;;;;;;;;;;5012586;28;20418;-62
2023/03/07 06:01:02;;;;;;;9.82;9.32;;;;;;;;;;5012957;28;20026;-62
2023/03/07 06:03:27;;;;;;;10.43;9.88;;;;;;;;;;5012533;28;20377;-63
2023/03/07 06:05:53;;;;;;;9.90;9.40;;;;;;;;;;5012492;28;20037;-62
2023/03/07 06:08:19;;;;;;;8.98;8.57;;;;;;;;;;5012747;28;20033;-62
2023/03/07 06:10:48;;;;;;;9.40;9.00;;;;;;;;;;4998733;28;20052;-61
2023/03/07 06:13:15;;;;;;;10.40;9.82;;;;;;;;;;5003725;28;20065;-62
2023/03/07 06:15:40;;;;;;;9.30;8.85;;;;;;;;;;5011539;28;20041;-62
2023/03/07 06:18:05;;;;;;;10.10;9.60;;;;;;;;;;5012769;28;20384;-63
2023/03/07 06:20:31;;;;;;;9.95;9.45;;;;;;;;;;5012515;28;20029;-62
2023/03/07 06:22:56;;;;;;;10.60;10.00;;;;;;;;;;5012529;28;20033;-62
2023/03/07 06:25:21;;;;;;;11.27;10.68;;;;;;;;;;5003801;28;20024;-62
2023/03/07 06:27:47;;;;;;;9.73;9.23;;;;;;;;;;5000263;28;20025;-63
2023/03/07 06:30:12;;;;;;;10.20;9.70;;;;;;;;;;5011079;28;20068;-62
2023/03/07 06:32:37;;;;;;;9.25;8.85;;;;;;;;;;5012146;28;20033;-63
2023/03/07 06:35:03;;;;;;;10.13;9.63;;;;;;;;;;5011793;28;20030;-63
2023/03/07 06:37:28;;;;;;;8.80;8.40;;;;;;;;;;5009218;28;20096;-62
2023/03/07 06:39:54;;;;;;;9.40;9.00;;;;;;;;;;5012074;28;20084;-62
2023/03/07 06:42:19;;;;;;;10.18;9.68;;;;;;;;;;5012123;28;20464;-62
2023/03/07 06:44:45;;;;;;;10.38;9.88;;;;;;;;;;5021982;28;20025;-63
2023/03/07 06:47:10;;;;;;;10.88;10.38;;;;;;;;;;5011865;28;20480;-62
2023/03/07 06:49:35;;;;;;;10.20;9.73;;;;;;;;;;5011518;28;20065;-62
2023/03/07 06:52:00;;;;;;;9.90;9.50;;;;;;;;;;5002969;28;20483;-62
2023/03/07 06:54:26;;;;;;;10.07;9.68;;;;;;;;;;5011180;28;20022;-63
2023/03/07 06:56:51;;;;;;;10.00;9.60;;;;;;;;;;5008438;28;20519;-63
2023/03/07 06:59:16;;;;;;;9.88;9.48;;;;;;;;;;5011805;28;20040;-62
2023/03/07 07:01:42;;;;;;;10.07;9.68;;;;;;;;;;5003175;28;20017;-63
2023/03/07 07:04:08;;;;;;;10.18;9.77;;;;;;;;;;5011694;28;20017;-63
2023/03/07 07:06:33;;;;;;;10.15;9.75;;;;;;;;;;5011713;28;20048;-61
2023/03/07 07:08:59;;;;;;;10.20;9.80;;;;;;;;;;5007024;28;20026;-61
2023/03/07 07:11:25;;;;;;;10.10;9.70;;;;;;;;;;5009767;28;20639;-62
2023/03/07 07:13:50;;;;;;;10.70;10.20;;;;;;;;;;5011472;28;20022;-62
2023/03/07 07:16:16;;;;;;;10.68;10.18;;;;;;;;;;5011309;28;20113;-61
2023/03/07 07:18:42;;;;;;;10.65;10.15;;;;;;;;;;5005713;28;20433;-62
2023/03/07 07:21:07;;;;;;;10.52;10.02;;;;;;;;;;5012286;28;20018;-61
2023/03/07 07:23:33;;;;;;;10.60;10.10;;;;;;;;;;5011430;28;20017;-61
2023/03/07 07:25:58;;;;;;;10.68;10.18;;;;;;;;;;4989668;28;20268;-61
2023/03/07 07:28:23;;;;;;;10.45;9.95;;;;;;;;;;5005667;28;20061;-62
2023/03/07 07:30:49;;;;;;;10.70;10.20;;;;;;;;;;5000139;28;20033;-61
2023/03/07 07:33:14;;;;;;;10.38;9.90;;;;;;;;;;4996600;28;20172;-61
2023/03/07 07:35:43;;;;;;;10.70;10.20;;;;;;;;;;5008805;28;20026;-61
2023/03/07 07:38:08;;;;;;;10.70;10.20;;;;;;;;;;5010638;28;20385;-61
2023/03/07 07:40:34;;;;;;;10.75;10.25;;;;;;;;;;5009841;28;20032;-61
2023/03/07 07:42:59;;;;;;;10.48;9.98;;;;;;;;;;5005207;28;20589;-61
2023/03/07 07:45:24;;;;;;;10.77;10.27;;;;;;;;;;5008972;28;20030;-66
2023/03/07 07:47:50;;;;;;;10.45;9.98;;;;;;;;;;5016175;28;20615;-67
2023/03/07 07:50:19;;;;;;;10.77;10.27;;;;;;;;;;5017806;28;20045;-65
2023/03/07 07:52:44;;;;;;;10.70;10.20;;;;;;;;;;5006722;28;20649;-68
2023/03/07 07:55:12;;;;;;;10.60;10.10;;;;;;;;;;5005958;28;20033;-67
2023/03/07 07:57:37;;;;;;;10.20;9.80;;;;;;;;;;5005264;28;20022;-66
2023/03/07 08:00:03;;;;;;;10.60;10.10;;;;;;;;;;5015948;28;20021;-65
2023/03/07 08:02:29;;;;;;;9.98;9.57;;;;;;;;;;5019500;28;20014;-65
2023/03/07 08:04:54;;;;;;;10.48;9.98;;;;;;;;;;5007181;28;20368;-66
2023/03/07 08:07:20;;;;;;;10.10;9.70;;;;;;;;;;5007319;28;20053;-68
2023/03/07 08:09:45;;;;;;;10.00;9.60;;;;;;;;;;5012567;28;20021;-68
2023/03/07 08:12:11;;;;;;;10.57;10.07;;;;;;;;;;5015829;28;20255;-68
2023/03/07 08:14:38;;;;;;;10.00;9.60;;;;;;;;;;5012172;28;20029;-69
2023/03/07 08:17:03;;;;;;;10.40;9.93;;;;;;;;;;5014196;28;20018;-68
2023/03/07 08:19:28;;;;;;;10.85;10.35;;;;;;;;;;5008694;28;20033;-68
2023/03/07 08:21:54;;;;;;;10.23;9.82;;;;;;;;;;5013635;28;20041;-67
2023/03/07 08:24:19;;;;;;;10.55;10.05;;;;;;;;;;4996608;28;20033;-68
2023/03/07 08:26:44;;;;;;;10.20;9.80;;;;;;;;;;5009470;28;20042;-67
2023/03/07 08:29:09;;;;;;;10.50;10.00;;;;;;;;;;5006688;28;20291;-66
2023/03/07 08:31:35;;;;;;;10.77;10.27;;;;;;;;;;5000990;28;20329;-66
2023/03/07 08:34:00;;;;;;;11.07;10.57;;;;;;;;;;5011359;28;20120;-67
2023/03/07 08:36:25;;;;;;;10.85;10.35;;;;;;;;;;5009998;28;20286;-70
2023/03/07 08:38:51;;;;;;;11.45;10.95;;;;;;;;;;5010932;28;20026;-69
2023/03/07 08:41:16;;;;;;;10.77;10.27;;;;;;;;;;5015268;28;20037;-70
2023/03/07 08:43:42;;;;;;;10.63;10.13;;;;;;;;;;5001142;28;20029;-69
2023/03/07 08:46:07;;;;;;;10.85;10.35;;;;;;;;;;5012552;28;20445;-69
2023/03/07 08:48:32;;;;;;;10.50;10.00;;;;;;;;;;5005879;28;20049;-66
2023/03/07 08:51:03;;;;;;;10.63;10.13;;;;;;;;;;5018308;28;20325;-69
2023/03/07 08:53:28;;;;;;;10.80;10.30;;;;;;;;;;5012653;28;20033;-69
2023/03/07 08:55:53;;;;;;;10.23;9.83;;;;;;;;;;5015286;28;20037;-68
2023/03/07 08:58:18;;;;;;;10.37;9.90;;;;;;;;;;5014608;28;20727;-66
2023/03/07 09:00:44;;;;;;;10.57;10.07;;;;;;;;;;5006093;28;20259;-65
2023/03/07 09:03:09;;;;;;;10.63;10.13;;;;;;;;;;5011705;28;20674;-66
2023/03/07 09:05:40;;;;;;;10.85;10.35;;;;;;;;;;5013945;28;20362;-69
2023/03/07 09:08:06;;;;;;;10.65;10.15;;;;;;;;;;5016248;28;20582;-69
2023/03/07 09:10:32;;;;;;;10.98;10.48;;;;;;;;;;5017034;28;20080;-65
2023/03/07 09:12:57;;;;;;;11.07;10.57;;;;;;;;;;5012975;28;20018;-67
2023/03/07 09:15:22;;;;;;;10.48;9.98;;;;;;;;;;5018035;28;20090;-66
2023/03/07 09:17:48;;;;;;;10.82;10.32;;;;;;;;;;5015665;28;20017;-67
2023/03/07 09:20:17;;;;;;;10.57;10.07;;;;;;;;;;5009793;28;20061;-70
2023/03/07 09:22:42;;;;;;;10.70;10.20;;;;;;;;;;5010833;28;20021;-68
2023/03/07 09:25:08;;;;;;;10.68;10.18;;;;;;;;;;5008316;28;21834;-69
2023/03/07 09:27:33;;;;;;;10.60;10.10;;;;;;;;;;5013440;28;20051;-67
2023/03/07 09:29:58;;;;;;;10.60;10.10;;;;;;;;;;5006340;28;20042;-68
2023/03/07 09:32:24;;;;;;;10.63;10.13;;;;;;;;;;5001119;28;20022;-69
2023/03/07 09:34:50;;;;;;;10.25;9.82;;;;;;;;;;5010408;28;20076;-71
2023/03/07 09:37:17;;;;;;;10.57;10.07;;;;;;;;;;4998831;28;20022;-71
2023/03/07 09:39:42;;;;;;;10.52;10.02;;;;;;;;;;4996438;28;20030;-69
2023/03/07 09:42:26;;;;;;;10.85;10.35;;;;;;;;;;5015147;28;20170;-67
2023/03/07 09:44:51;;;;;;;10.15;9.75;;;;;;;;;;5005051;28;20541;-66
2023/03/07 09:47:20;;;;;;;10.13;9.73;;;;;;;;;;5017970;28;20109;-67
2023/03/07 09:49:46;;;;;;;10.80;10.30;;;;;;;;;;5025360;28;20282;-65
2023/03/07 09:52:13;;;;;;;10.70;10.20;;;;;;;;;;5008793;28;20026;-65
2023/03/07 09:54:44;;;;;;;10.68;10.18;;;;;;;;;;5009231;28;20021;-69
2023/03/07 09:57:14;;;;;;;10.82;10.32;;;;;;;;;;5013802;28;20033;-69
2023/03/07 09:59:42;;;;;;;11.00;10.50;;;;;;;;;;5010049;28;20068;-66
2023/03/07 10:02:30;;;;;;;11.40;10.88;;;;;;;;;;5004628;28;20579;-65
2023/03/07 10:05:03;;;;;;;11.93;11.32;;;;;;;;;;4969274;28;20041;-68
2023/03/07 10:07:28;;;;;;;11.13;10.63;;;;;;;;;;5018289;28;20080;-67
2023/03/07 10:09:59;;;;;;;10.95;10.45;;;;;;;;;;5008242;28;20489;-66
2023/03/07 10:12:43;;;;;;;10.73;10.23;;;;;;;;;;5009407;28;20056;-66
2023/03/07 10:15:12;;;;;;;12.07;11.48;;;;;;;;;;5007666;28;20033;-68
2023/03/07 10:18:06;;;;;;;10.60;10.10;;;;;;;;;;5007656;28;20014;-68
2023/03/07 10:20:39;;;;;;;11.57;10.98;;;;;;;;;;4998580;28;20733;-66
2023/03/07 10:23:07;;;;;;;10.85;10.35;;;;;;;;;;5005458;28;20044;-66
2023/03/07 10:25:32;;;;;;;11.35;10.75;;;;;;;;;;5006174;28;20014;-68
2023/03/07 10:28:10;;;;;;;11.88;11.27;;;;;;;;;;5013423;28;20034;-64
2023/03/07 10:30:35;;;;;;;11.45;10.85;;;;;;;;;;5005929;28;20527;-67
2023/03/07 10:33:01;;;;;;;10.65;10.15;;;;;;;;;;5003359;28;20105;-67
2023/03/07 10:35:50;;;;;;;10.55;10.05;;;;;;;;;;5016926;28;20029;-64
2023/03/07 10:38:27;;;;;;;10.20;9.70;;;;;;;;;;4990438;28;20030;-68
2023/03/07 10:40:56;;;;;;;10.85;10.35;;;;;;;;;;4996424;28;20083;-68
2023/03/07 10:43:23;;;;;;;10.30;9.80;;;;;;;;;;5000441;28;20112;-68
2023/03/07 10:45:51;;;;;;;10.50;10.00;;;;;;;;;;5004815;28;20022;-67
2023/03/07 10:48:18;;;;;;;10.55;10.05;;;;;;;;;;5009003;28;20041;-68
2023/03/07 10:50:59;;;;;;;10.32;9.82;;;;;;;;;;5006823;28;20056;-67
2023/03/07 10:53:26;;;;;;;9.95;9.45;;;;;;;;;;5005988;28;20032;-66
2023/03/07 10:55:52;;;;;;;10.95;10.45;;;;;;;;;;4991399;28;20038;-68
2023/03/07 10:58:27;;;;;;;10.13;9.63;;;;;;;;;;5010754;28;20033;-68
2023/03/07 11:01:07;;;;;;;10.20;9.70;;;;;;;;;;5008260;28;20444;-67
2023/03/07 11:03:54;;;;;;;10.75;10.25;;;;;;;;;;5003898;28;20054;-68
2023/03/07 11:06:39;;;;;;;10.50;10.00;;;;;;;;;;5007541;28;20018;-67
2023/03/07 11:09:04;;;;;;;;;;;;;;;;;;5010596;28;20034;-68
2023/03/07 11:11:30;;;;;;;10.07;9.57;;;;;;;;;;5004381;28;20295;-66
2023/03/07 11:14:09;;;;;;;10.95;10.43;;;;;;;;;;4998019;28;20026;-66
2023/03/07 11:16:41;;;;;;;10.65;10.15;;;;;;;;;;5009699;28;20136;-67
2023/03/07 11:19:25;;;;;;;10.73;10.23;;;;;;;;;;5010149;28;20140;-67
2023/03/07 11:21:54;;;;;;;10.03;9.53;;;;;;;;;;4997583;28;20042;-66
2023/03/07 11:24:23;;;;;;;10.75;10.25;;;;;;;;;;5009818;28;20141;-67
2023/03/07 11:26:52;;;;;;;11.52;10.93;;;;;;;;;;5009191;28;20079;-67
2023/03/07 11:29:17;;;;;;;11.10;10.50;;;;;;;;;;5013949;28;20080;-67
2023/03/07 11:31:45;;;;;;;12.07;11.48;;;;;;;;;;4998746;28;20058;-67
2023/03/07 11:34:10;;;;;;;10.07;9.57;;;;;;;;;;5004304;28;20026;-67
2023/03/07 11:36:38;;;;;;;10.50;10.00;;;;;;;;;;5007634;28;20076;-66
2023/03/07 11:39:12;;;;;;;12.07;11.45;;;;;;;;;;5008142;28;20488;-65
2023/03/07 11:41:44;;;;;;;11.23;10.63;;;;;;;;;;5006796;28;20037;-64
2023/03/07 11:44:28;;;;;;;10.95;10.40;;;;;;;;;;5009178;28;20021;-63
2023/03/07 11:47:09;;;;;;;9.90;9.40;;;;;;;;;;5011654;28;20424;-63
2023/03/07 11:49:37;;;;;;;10.02;9.52;;;;;;;;;;5010908;28;20787;-63
2023/03/07 11:52:18;;;;;;;9.80;9.30;;;;;;;;;;5010001;28;20593;-64
2023/03/07 11:54:43;;;;;;;10.88;10.38;;;;;;;;;;4997606;28;20117;-68
2023/03/07 11:57:14;;;;;;;11.25;10.65;;;;;;;;;;5006832;28;20116;-65
2023/03/07 11:59:42;;;;;;;11.05;10.45;;;;;;;;;;5006859;28;20026;-65
2023/03/07 12:02:26;;;;;;;10.85;10.35;;;;;;;;;;5005129;28;20037;-65
2023/03/07 12:05:04;;;;;;;9.90;9.40;;;;;;;;;;5000795;28;20044;-65
2023/03/07 12:07:38;;;;;;;10.43;9.93;;;;;;;;;;5014299;28;20018;-63
2023/03/07 12:10:22;;;;;;;9.50;9.10;;;;;;;;;;5005488;28;20126;-66
2023/03/07 12:12:50;;;;;;;10.20;9.70;;;;;;;;;;5007602;28;20114;-62
2023/03/07 12:15:31;;;;;;;11.32;10.73;;;;;;;;;;5010630;28;20712;-62
2023/03/07 12:18:28;;;;;;;10.90;10.40;;;;;;;;;;5014057;28;20022;-63
2023/03/07 12:20:57;;;;;;;9.43;9.02;;;;;;;;;;4985488;28;20092;-63
2023/03/07 12:23:32;;;;;;;10.02;9.52;;;;;;;;;;5014456;28;20549;-62
2023/03/07 12:25:58;;;;;;;10.48;9.98;;;;;;;;;;5013025;28;20105;-62
2023/03/07 12:28:28;;;;;;;10.18;9.68;;;;;;;;;;5014395;28;20030;-61
2023/03/07 12:31:12;;;;;;;10.05;9.55;;;;;;;;;;5014681;28;20029;-62
2023/03/07 12:33:56;;;;;;;10.00;9.50;;;;;;;;;;5011625;28;20091;-61
2023/03/07 12:36:36;;;;;;;10.85;10.35;;;;;;;;;;5014597;28;20025;-63
2023/03/07 12:39:22;;;;;;;10.60;10.10;;;;;;;;;;5007701;28;20036;-60
2023/03/07 12:41:59;;;;;;;10.40;9.90;;;;;;;;;;4974476;28;20045;-62
2023/03/07 12:44:33;;;;;;;11.27;10.68;;;;;;;;;;5012911;28;20113;-62
2023/03/07 12:47:07;;;;;;;10.52;10.02;;;;;;;;;;5015547;28;20128;-62
2023/03/07 12:49:38;;;;;;;11.00;10.40;;;;;;;;;;5010188;28;20036;-59
2023/03/07 12:52:05;;;;;;;11.18;10.57;;;;;;;;;;5013447;28;20018;-62
2023/03/07 12:54:36;;;;;;;10.27;9.77;;;;;;;;;;5010791;28;20096;-62
2023/03/07 12:57:08;;;;;;;12.40;11.70;;;;;;;;;;5008151;28;20018;-63
2023/03/07 12:59:35;;;;;;;11.27;10.68;;;;;;;;;;5016979;28;20055;-66
2023/03/07 13:02:09;;;;;;;10.65;10.15;;;;;;;;;;5002435;28;20017;-66
2023/03/07 13:04:36;;;;;;;11.25;10.65;;;;;;;;;;5013462;28;20033;-66
2023/03/07 13:07:01;;;;;;;11.35;10.75;;;;;;;;;;5007301;28;20229;-66
2023/03/07 13:09:27;;;;;;;11.50;10.90;;;;;;;;;;5014266;28;20560;-64
2023/03/07 13:12:08;;;;;;;10.07;9.57;;;;;;;;;;5018561;28;20018;-65
2023/03/07 13:14:37;;;;;;;10.13;9.63;;;;;;;;;;5011282;28;20022;-66
2023/03/07 13:17:02;;;;;;;10.07;9.57;;;;;;;;;;5019654;28;20124;-69
2023/03/07 13:19:37;;;;;;;10.45;9.95;;;;;;;;;;5014445;28;20179;-65
2023/03/07 13:22:15;;;;;;;10.68;10.18;;;;;;;;;;5006501;28;20536;-63
2023/03/07 13:24:41;;;;;;;10.35;9.85;;;;;;;;;;5013174;28;20018;-66
2023/03/07 13:27:17;;;;;;;10.65;10.15;;;;;;;;;;5000445;28;20033;-65
2023/03/07 13:30:01;;;;;;;9.75;9.30;;;;;;;;;;5014887;28;20054;-67
2023/03/07 13:32:46;;;;;;;10.05;9.55;;;;;;;;;;5009628;28;20018;-71
2023/03/07 13:35:11;;;;;;;11.13;10.55;;;;;;;;;;5013096;28;20122;-61
2023/03/07 13:38:03;;;;;;;10.57;10.07;;;;;;;;;;5013163;28;20109;-61
2023/03/07 13:40:47;;;;;;;10.60;10.10;;;;;;;;;;4977445;28;20037;-60
2023/03/07 13:43:21;;;;;;;10.63;10.13;;;;;;;;;;5005524;28;20022;-62
2023/03/07 13:45:47;;;;;;;10.45;9.95;;;;;;;;;;5012635;28;20052;-62
2023/03/07 13:48:18;;;;;;;9.90;9.40;;;;;;;;;;5009129;28;20114;-64
2023/03/07 13:50:43;;;;;;;10.88;10.38;;;;;;;;;;5003172;28;20017;-64
2023/03/07 13:53:17;;;;;;;10.05;9.55;;;;;;;;;;5012516;28;20032;-63
2023/03/07 13:55:49;;;;;;;11.05;10.48;;;;;;;;;;5002560;28;20429;-64
2023/03/07 13:58:17;;;;;;;10.40;9.90;;;;;;;;;;5003169;28;20029;-64
2023/03/07 14:00:51;;;;;;;10.50;10.00;;;;;;;;;;5012378;28;20501;-63
2023/03/07 14:03:22;;;;;;;10.30;9.80;;;;;;;;;;5012290;28;20594;-65
2023/03/07 14:05:47;;;;;;;10.77;10.27;;;;;;;;;;5012283;28;20080;-64
2023/03/07 14:08:13;;;;;;;10.35;9.85;;;;;;;;;;5012551;28;20018;-63
2023/03/07 14:10:43;;;;;;;10.95;10.38;;;;;;;;;;5009312;28;20477;-65
2023/03/07 14:13:08;;;;;;;10.73;10.23;;;;;;;;;;5012589;28;20018;-65
2023/03/07 14:15:51;;;;;;;11.07;10.52;;;;;;;;;;5011423;28;20531;-63
2023/03/07 14:18:17;;;;;;;10.38;9.88;;;;;;;;;;4999310;28;20373;-64
2023/03/07 14:20:51;;;;;;;10.80;10.30;;;;;;;;;;5006809;28;20032;-63
2023/03/07 14:23:34;;;;;;;9.32;8.93;;;;;;;;;;5011515;28;20068;-64
2023/03/07 14:26:18;;;;;;;11.67;11.07;;;;;;;;;;4999846;28;20026;-64
2023/03/07 14:28:56;;;;;;;11.20;10.60;;;;;;;;;;5013267;28;20058;-63
2023/03/07 14:31:24;;;;;;;10.77;10.27;;;;;;;;;;5021590;28;20096;-65
2023/03/07 14:33:49;;;;;;;10.85;10.35;;;;;;;;;;5010832;28;20592;-64
2023/03/07 14:36:33;;;;;;;10.60;10.10;;;;;;;;;;5010816;28;20122;-64